Terminal Aerodrome Forecast
Issued by NWS New Orleans/Baton Rouge, LA

Home | Current Version | Previous Version | Text Only | Print | Product List | Glossary On
Versions: 1 2 3 4 5 6 7 8 9 10 11 12 13 14 15 16 17 18 19 20 21 22 23
000
FTUS44 KLIX 300500
TAFNEW
TAF
KNEW 300536Z 3006/3106 15008KT P6SM VCSH SCT020 BKN110
      TEMPO 3010/3014 5SM -SHRA BR SCT015 BKN025
     FM301600 16012KT 6SM -SHRA BKN025 OVC050
      TEMPO 3018/3022 2SM TSRA BKN025CB
     FM310100 16008KT P6SM BKN050=

USA.gov is the U.S. government's official web portal to all federal, state and local government web resources and services.